createdAt,value
2019-05-18T00:01:53.880Z,7.13
2019-05-18T00:04:22.351Z,8.23
2019-05-18T00:06:49.837Z,8.43
2019-05-18T00:09:18.181Z,7.03
2019-05-18T00:11:45.852Z,8.80
2019-05-18T00:14:13.357Z,7.77
2019-05-18T00:16:41.004Z,8.60
2019-05-18T00:19:09.263Z,8.90
2019-05-18T00:21:36.743Z,8.10
2019-05-18T00:24:05.107Z,8.77
2019-05-18T00:26:33.495Z,8.00
2019-05-18T00:29:00.981Z,8.53
2019-05-18T00:31:29.325Z,7.20
2019-05-18T00:33:56.843Z,8.83
2019-05-18T00:36:24.667Z,8.30
2019-05-18T00:38:52.239Z,8.57
2019-05-18T00:41:19.739Z,8.53
2019-05-18T00:43:47.235Z,9.47
2019-05-18T00:46:14.927Z,9.53
2019-05-18T00:48:42.430Z,8.43
2019-05-18T00:51:10.026Z,9.63
2019-05-18T00:53:37.610Z,9.57
2019-05-18T00:56:05.160Z,9.73
2019-05-18T00:58:32.754Z,9.50
2019-05-18T01:01:02.052Z,11.60
2019-05-18T01:03:29.624Z,9.10
2019-05-18T01:05:57.190Z,9.27
2019-05-18T01:08:24.758Z,9.57
2019-05-18T01:10:52.330Z,10.73
2019-05-18T01:13:20.691Z,11.03
2019-05-18T01:15:49.066Z,9.07
2019-05-18T01:18:16.628Z,9.77
2019-05-18T01:20:44.126Z,9.97
2019-05-18T01:23:12.380Z,10.70
2019-05-18T01:25:39.868Z,9.40
2019-05-18T01:28:08.231Z,9.47
2019-05-18T01:30:35.790Z,9.23
2019-05-18T01:33:04.433Z,10.67
2019-05-18T01:35:33.074Z,9.27
2019-05-18T01:38:00.630Z,9.43
2019-05-18T01:40:28.189Z,8.30
2019-05-18T01:42:55.835Z,9.43
2019-05-18T01:45:23.318Z,9.40
2019-05-18T01:47:50.801Z,9.40
2019-05-18T01:50:19.172Z,9.73
2019-05-18T01:52:46.674Z,8.97
2019-05-18T01:55:14.193Z,8.80
2019-05-18T01:57:41.863Z,9.40
2019-05-18T02:00:09.356Z,9.63
2019-05-18T02:02:37.713Z,10.13
2019-05-18T02:05:05.999Z,10.27
2019-05-18T02:07:34.289Z,8.93
2019-05-18T02:10:02.764Z,10.00
2019-05-18T02:12:31.027Z,8.47
2019-05-18T02:14:58.525Z,8.30
2019-05-18T02:17:26.787Z,8.63
2019-05-18T02:19:54.282Z,7.43
2019-05-18T02:22:21.763Z,7.50
2019-05-18T02:24:49.263Z,6.63
2019-05-18T02:27:16.828Z,7.20
2019-05-18T02:29:44.414Z,7.90
2019-05-18T02:32:12.731Z,8.33
2019-05-18T02:34:40.214Z,8.43
2019-05-18T02:37:07.795Z,7.33
2019-05-18T02:39:36.127Z,8.47
2019-05-18T02:42:04.668Z,9.27
2019-05-18T02:44:33.853Z,8.33
2019-05-18T02:47:01.337Z,8.20
2019-05-18T02:49:29.780Z,8.27
2019-05-18T02:51:57.498Z,6.93
2019-05-18T02:54:24.976Z,7.83
2019-05-18T02:56:53.235Z,7.30
2019-05-18T02:59:20.793Z,7.50
2019-05-18T03:01:48.358Z,7.50
2019-05-18T03:04:15.845Z,7.90
2019-05-18T03:06:44.277Z,7.27
2019-05-18T03:09:11.759Z,7.60
2019-05-18T03:11:39.277Z,7.27
2019-05-18T03:14:06.765Z,8.17
2019-05-18T03:16:35.379Z,7.70
2019-05-18T03:19:08.246Z,7.67
2019-05-18T03:21:31.338Z,7.60
2019-05-18T03:23:58.865Z,8.60
2019-05-18T03:26:26.458Z,8.77
2019-05-18T03:28:54.024Z,9.13
2019-05-18T03:31:22.918Z,8.18
2019-05-18T03:33:50.484Z,7.57
2019-05-18T03:36:17.995Z,7.83
2019-05-18T03:38:45.612Z,8.07
2019-05-18T03:41:13.277Z,8.53
2019-05-18T03:43:40.853Z,8.90
2019-05-18T03:46:08.303Z,9.03
2019-05-18T03:48:35.802Z,9.63
2019-05-18T03:51:05.269Z,8.97
2019-05-18T03:53:32.865Z,8.23
2019-05-18T03:56:01.272Z,9.23
2019-05-18T03:58:28.807Z,8.80
2019-05-18T04:00:57.054Z,8.50
2019-05-18T04:03:24.622Z,8.23
2019-05-18T04:05:52.120Z,8.60
2019-05-18T04:08:19.647Z,8.17
2019-05-18T04:10:47.221Z,7.50
2019-05-18T04:13:14.696Z,8.37
2019-05-18T04:15:43.061Z,8.60
2019-05-18T04:18:10.567Z,9.20
2019-05-18T04:20:38.066Z,9.03
2019-05-18T04:23:05.562Z,9.80
2019-05-18T04:25:33.046Z,9.60
2019-05-18T04:28:00.581Z,9.97
2019-05-18T04:30:28.150Z,9.47
2019-05-18T04:32:55.688Z,9.90
2019-05-18T04:35:23.201Z,9.77
2019-05-18T04:37:51.466Z,9.37
2019-05-18T04:40:19.718Z,9.20
2019-05-18T04:42:47.415Z,9.33
2019-05-18T04:45:15.984Z,9.57
2019-05-18T04:47:47.979Z,10.60
2019-05-18T04:50:11.112Z,8.23
2019-05-18T04:52:38.598Z,9.90
2019-05-18T04:55:06.857Z,9.87
2019-05-18T04:57:34.347Z,8.80
2019-05-18T05:00:02.608Z,10.87
2019-05-18T05:02:30.988Z,9.83
2019-05-18T05:04:58.803Z,9.70
2019-05-18T05:07:26.341Z,11.40
2019-05-18T05:09:53.803Z,8.30
2019-05-18T05:12:22.071Z,9.82
2019-05-18T05:14:49.692Z,10.67
2019-05-18T05:17:17.296Z,7.80
2019-05-18T05:19:44.855Z,10.73
2019-05-18T05:22:12.414Z,10.43
2019-05-18T05:24:39.912Z,10.77
2019-05-18T05:27:08.169Z,10.57
2019-05-18T05:29:35.663Z,10.57
2019-05-18T05:32:04.622Z,10.63
2019-05-18T05:34:33.624Z,8.93
2019-05-18T05:37:01.177Z,9.17
2019-05-18T05:39:28.742Z,10.47
2019-05-18T05:41:56.236Z,11.53
2019-05-18T05:44:24.608Z,9.30
2019-05-18T05:46:53.086Z,10.67
2019-05-18T05:49:20.805Z,10.07
2019-05-18T05:51:48.302Z,9.83
2019-05-18T05:54:17.437Z,11.33
2019-05-18T05:56:45.791Z,11.37
2019-05-18T05:59:13.289Z,11.50
2019-05-18T06:01:40.774Z,12.00
2019-05-18T06:04:08.377Z,11.80
2019-05-18T06:06:36.049Z,11.37
2019-05-18T06:09:04.676Z,9.33
2019-05-18T06:11:32.180Z,9.70
2019-05-18T06:13:59.759Z,11.80
2019-05-18T06:16:27.317Z,10.43
2019-05-18T06:18:54.802Z,9.73
2019-05-18T06:21:22.342Z,11.17
2019-05-18T06:23:49.847Z,11.37
2019-05-18T06:26:18.098Z,12.33
2019-05-18T06:28:45.630Z,10.90
2019-05-18T06:31:13.205Z,10.60
2019-05-18T06:33:40.783Z,11.03
2019-05-18T06:36:08.281Z,12.67
2019-05-18T06:38:36.530Z,12.33
2019-05-18T06:41:04.224Z,12.50
2019-05-18T06:43:32.489Z,10.90
2019-05-18T06:45:59.983Z,12.17
2019-05-18T06:48:27.507Z,16.27
2019-05-18T06:51:06.635Z,10.30
2019-05-18T06:53:23.458Z,15.10
2019-05-18T06:55:50.012Z,8.53
2019-05-18T06:58:18.388Z,14.90
2019-05-18T07:00:46.762Z,9.37
2019-05-18T07:03:14.353Z,17.07
2019-05-18T07:05:42.820Z,8.80
2019-05-18T07:08:11.196Z,8.83
2019-05-18T07:10:39.569Z,9.33
2019-05-18T07:13:07.074Z,16.43
2019-05-18T07:15:34.575Z,17.57
2019-05-18T07:18:02.150Z,14.50
2019-05-18T07:20:29.738Z,11.60
2019-05-18T07:22:57.235Z,9.60
2019-05-18T07:25:24.738Z,27.27
2019-05-18T07:27:52.230Z,20.00
2019-05-18T07:30:19.903Z,19.27
2019-05-18T07:32:48.233Z,18.43
2019-05-18T07:35:15.722Z,12.30
2019-05-18T07:37:43.238Z,17.27
2019-05-18T07:40:10.733Z,16.07
2019-05-18T07:42:38.228Z,12.63
2019-05-18T07:45:06.597Z,16.90
2019-05-18T07:47:34.265Z,15.30
2019-05-18T07:50:01.863Z,16.90
2019-05-18T07:52:30.120Z,14.33
2019-05-18T07:54:57.633Z,13.37
2019-05-18T07:57:25.234Z,15.50
2019-05-18T07:59:53.121Z,17.33
2019-05-18T08:02:20.787Z,18.23
2019-05-18T08:04:48.288Z,14.30
2019-05-18T08:07:17.176Z,15.50
2019-05-18T08:09:44.813Z,13.07
2019-05-18T08:12:12.385Z,16.63
2019-05-18T08:14:40.771Z,16.80
2019-05-18T08:17:09.053Z,19.53
2019-05-18T08:19:37.437Z,17.47
2019-05-18T08:22:06.869Z,17.90
2019-05-18T08:24:34.381Z,15.73
2019-05-18T08:27:02.461Z,13.50
2019-05-18T08:29:29.453Z,13.17
2019-05-18T08:31:56.959Z,15.47
2019-05-18T08:34:24.469Z,16.83
2019-05-18T08:36:52.786Z,17.17
2019-05-18T08:39:20.376Z,17.00
2019-05-18T08:41:48.843Z,18.30
2019-05-18T08:44:15.540Z,16.40
2019-05-18T08:46:43.045Z,14.10
2019-05-18T08:49:10.611Z,15.30
2019-05-18T08:51:38.119Z,16.20
2019-05-18T08:54:06.395Z,17.07
2019-05-18T08:56:34.662Z,17.30
2019-05-18T08:59:02.196Z,18.30
2019-05-18T09:01:29.686Z,15.77
2019-05-18T09:03:58.250Z,18.57
2019-05-18T09:06:25.846Z,17.13
2019-05-18T09:11:28.230Z,16.53
2019-05-18T09:13:55.823Z,17.20
2019-05-18T09:16:24.084Z,16.50
2019-05-18T09:18:53.079Z,14.50
2019-05-18T09:21:20.597Z,16.20
2019-05-18T09:23:48.076Z,16.40
2019-05-18T09:26:15.576Z,16.30
2019-05-18T09:28:43.126Z,16.43
2019-05-18T09:31:12.349Z,15.30
2019-05-18T09:33:40.754Z,14.67
2019-05-18T09:36:08.267Z,16.00
2019-05-18T09:38:35.851Z,13.73
2019-05-18T09:41:04.542Z,16.07
2019-05-18T09:43:32.309Z,15.27
2019-05-18T09:45:59.811Z,14.57
2019-05-18T09:48:27.448Z,13.17
2019-05-18T09:50:55.013Z,14.27
2019-05-18T09:53:23.408Z,11.90
2019-05-18T09:55:51.778Z,13.13
2019-05-18T09:58:19.286Z,12.57
2019-05-18T10:00:46.803Z,12.67
2019-05-18T10:03:14.365Z,12.53
2019-05-18T10:05:41.893Z,13.07
2019-05-18T10:08:09.413Z,13.60
2019-05-18T10:10:36.904Z,13.27
2019-05-18T10:13:04.505Z,11.27
2019-05-18T10:15:32.014Z,14.00
2019-05-18T10:17:59.548Z,14.63
2019-05-18T10:20:27.055Z,13.53
2019-05-18T10:23:11.416Z,12.73
2019-05-18T10:25:22.243Z,13.50
2019-05-18T10:27:49.753Z,13.97
2019-05-18T10:30:17.252Z,11.37
2019-05-18T10:32:44.740Z,13.77
2019-05-18T10:35:13.382Z,11.43
2019-05-18T10:37:40.868Z,11.70
2019-05-18T10:40:08.547Z,13.37
2019-05-18T10:42:36.889Z,10.50
2019-05-18T10:45:05.966Z,11.23
2019-05-18T10:47:33.495Z,13.80
2019-05-18T10:50:00.998Z,13.97
2019-05-18T10:52:28.623Z,13.97
2019-05-18T10:54:56.211Z,15.50
2019-05-18T10:57:24.507Z,15.73
2019-05-18T10:59:52.072Z,17.90
2019-05-18T11:02:19.701Z,14.87
2019-05-18T11:04:47.288Z,14.60
2019-05-18T11:07:15.563Z,14.03
2019-05-18T11:09:43.935Z,16.80
2019-05-18T11:12:11.480Z,18.23
2019-05-18T11:14:39.092Z,15.63
2019-05-18T11:17:06.658Z,14.10
2019-05-18T11:19:34.378Z,19.40
2019-05-18T11:22:01.878Z,17.67
2019-05-18T11:24:29.372Z,17.60
2019-05-18T11:26:56.956Z,17.73
2019-05-18T11:29:24.971Z,16.60
2019-05-18T11:31:52.321Z,17.60
2019-05-18T11:34:19.886Z,15.40
2019-05-18T11:36:48.140Z,17.07
2019-05-18T11:39:15.824Z,15.80
2019-05-18T11:41:43.398Z,15.30
2019-05-18T11:44:11.090Z,14.70
2019-05-18T11:46:39.342Z,14.90
2019-05-18T11:49:07.002Z,17.47
2019-05-18T11:51:34.504Z,18.03
2019-05-18T11:54:02.066Z,17.50
2019-05-18T11:56:29.600Z,18.00
2019-05-18T11:58:57.964Z,16.67
2019-05-18T12:01:25.556Z,14.03
2019-05-18T12:03:53.865Z,17.97
2019-05-18T12:06:21.369Z,16.53
2019-05-18T12:08:49.598Z,17.73
2019-05-18T12:11:18.247Z,17.73
2019-05-18T12:13:45.907Z,15.70
2019-05-18T12:16:13.405Z,16.27
2019-05-18T12:18:41.657Z,16.33
2019-05-18T12:21:09.334Z,14.33
2019-05-18T12:23:36.911Z,13.37
2019-05-18T12:26:04.479Z,12.70
2019-05-18T12:28:32.953Z,14.57
2019-05-18T12:31:02.175Z,13.90
2019-05-18T12:33:27.968Z,12.70
2019-05-18T12:35:55.632Z,13.47
2019-05-18T12:38:23.303Z,13.23
2019-05-18T12:40:50.826Z,12.90
2019-05-18T12:43:18.332Z,13.63
2019-05-18T12:45:45.902Z,14.97
2019-05-18T12:48:13.461Z,16.02
2019-05-18T12:50:40.942Z,14.93
2019-05-18T12:53:09.310Z,13.10
2019-05-18T12:55:36.871Z,14.23
2019-05-18T12:58:04.541Z,13.63
2019-05-18T13:00:32.405Z,13.93
2019-05-18T13:03:00.090Z,15.77
2019-05-18T13:05:27.652Z,14.90
2019-05-18T13:07:55.225Z,12.57
2019-05-18T13:10:23.590Z,17.30
2019-05-18T13:12:51.862Z,14.30
2019-05-18T13:15:19.346Z,12.03
2019-05-18T13:17:46.845Z,14.43
2019-05-18T13:20:15.715Z,13.03
2019-05-18T13:22:44.551Z,12.60
2019-05-18T13:25:13.927Z,15.53
2019-05-18T13:27:42.902Z,13.37
2019-05-18T13:30:11.788Z,17.40
2019-05-18T13:32:40.689Z,18.27
2019-05-18T13:35:09.703Z,13.40
2019-05-18T13:37:37.971Z,16.53
2019-05-18T13:40:06.221Z,17.10
2019-05-18T13:42:33.716Z,16.40
2019-05-18T13:45:02.087Z,14.67
2019-05-18T13:47:29.809Z,14.50
2019-05-18T13:49:58.430Z,15.63
2019-05-18T13:52:25.022Z,17.77
2019-05-18T13:55:03.029Z,13.70
2019-05-18T13:57:21.574Z,16.40
2019-05-18T13:59:50.441Z,14.53
2019-05-18T14:02:20.373Z,17.80
2019-05-18T14:04:49.205Z,14.43
2019-05-18T14:07:16.731Z,15.07
2019-05-18T14:09:45.723Z,18.23
2019-05-18T14:12:13.211Z,18.23
2019-05-18T14:14:40.709Z,19.60
2019-05-18T14:17:09.642Z,16.97
2019-05-18T14:19:38.536Z,16.13
2019-05-18T14:22:07.534Z,17.57
2019-05-18T14:24:36.379Z,18.43
2019-05-18T14:27:05.318Z,17.60
2019-05-18T14:29:34.225Z,17.83
2019-05-18T14:32:03.835Z,16.63
2019-05-18T14:34:32.836Z,17.00
2019-05-18T14:37:01.850Z,19.47
2019-05-18T14:39:30.708Z,18.90
2019-05-18T14:41:59.604Z,16.20
2019-05-18T14:44:28.499Z,16.30
2019-05-18T14:46:57.335Z,17.63
2019-05-18T14:49:26.190Z,19.37
2019-05-18T14:51:55.023Z,18.63
2019-05-18T14:54:25.393Z,19.70
2019-05-18T14:56:52.885Z,20.13
2019-05-18T14:59:21.881Z,18.43
2019-05-18T15:01:50.788Z,16.90
2019-05-18T15:04:19.670Z,18.03
2019-05-18T15:06:48.581Z,19.00
2019-05-18T15:09:17.462Z,18.80
2019-05-18T15:11:46.465Z,18.27
2019-05-18T15:14:15.310Z,16.53
2019-05-18T15:16:44.143Z,19.00
2019-05-18T15:19:13.149Z,18.97
2019-05-18T15:21:41.987Z,19.07
2019-05-18T15:24:10.925Z,17.03
2019-05-18T15:26:39.931Z,17.27
2019-05-18T15:29:08.838Z,16.23
2019-05-18T15:31:37.694Z,17.07
2019-05-18T15:34:06.712Z,14.13
2019-05-18T15:36:35.620Z,16.33
2019-05-18T15:39:05.255Z,17.80
2019-05-18T15:41:34.103Z,20.90
2019-05-18T15:44:03.681Z,18.67
2019-05-18T15:46:32.610Z,14.27
2019-05-18T15:49:01.499Z,16.50
2019-05-18T15:51:30.346Z,17.77
2019-05-18T15:53:59.336Z,14.40
2019-05-18T15:56:28.219Z,17.40
2019-05-18T15:58:57.203Z,14.97
2019-05-18T16:01:26.304Z,16.23
2019-05-18T16:03:55.189Z,16.13
2019-05-18T16:06:24.081Z,18.20
2019-05-18T16:08:53.301Z,15.43
2019-05-18T16:11:22.613Z,16.73
2019-05-18T16:13:50.102Z,15.53
2019-05-18T16:16:17.823Z,13.50
2019-05-18T16:18:46.672Z,14.30
2019-05-18T16:21:15.710Z,17.03
2019-05-18T16:23:44.551Z,13.77
2019-05-18T16:26:21.271Z,16.00
2019-05-18T16:28:42.396Z,16.07
2019-05-18T16:31:11.325Z,16.10
2019-05-18T16:33:40.153Z,17.00
2019-05-18T16:36:09.092Z,12.43
2019-05-18T16:38:38.015Z,15.13
2019-05-18T16:41:06.878Z,14.67
2019-05-18T16:43:35.731Z,21.17
2019-05-18T16:46:04.950Z,19.30
2019-05-18T16:48:33.800Z,16.67
2019-05-18T16:51:03.552Z,16.77
2019-05-18T16:53:32.425Z,15.13
2019-05-18T16:56:01.252Z,14.90
2019-05-18T16:58:30.099Z,17.77
2019-05-18T17:00:59.175Z,18.13
2019-05-18T17:03:28.030Z,17.47
2019-05-18T17:05:56.871Z,15.50
2019-05-18T17:08:25.739Z,18.23
2019-05-18T17:10:54.626Z,16.53
2019-05-18T17:13:23.737Z,16.97
2019-05-18T17:15:52.598Z,15.93
2019-05-18T17:18:21.526Z,16.60
2019-05-18T17:20:50.622Z,17.10
2019-05-18T17:23:19.567Z,18.77
2019-05-18T17:25:48.413Z,14.53
2019-05-18T17:28:17.327Z,18.10
2019-05-18T17:30:45.618Z,15.77
2019-05-18T17:33:13.133Z,15.37
2019-05-18T17:35:40.709Z,15.00
2019-05-18T17:38:08.488Z,16.53
2019-05-18T17:40:37.085Z,18.83
2019-05-18T17:43:05.347Z,17.47
2019-05-18T17:45:33.116Z,14.73
2019-05-18T17:48:01.392Z,18.40
2019-05-18T17:50:30.429Z,17.93
2019-05-18T17:52:57.946Z,18.03
2019-05-18T17:55:25.622Z,15.97
2019-05-18T17:57:53.206Z,20.23
2019-05-18T18:00:21.499Z,16.83
2019-05-18T18:02:49.855Z,18.30
2019-05-18T18:05:17.423Z,17.83
2019-05-18T18:07:44.985Z,17.17
2019-05-18T18:10:14.954Z,14.27
2019-05-18T18:12:43.898Z,17.00
2019-05-18T18:15:12.803Z,15.07
2019-05-18T18:17:41.833Z,13.37
2019-05-18T18:20:10.693Z,15.83
2019-05-18T18:22:39.817Z,13.90
2019-05-18T18:25:08.804Z,14.33
2019-05-18T18:27:37.781Z,12.97
2019-05-18T18:30:06.618Z,14.03
2019-05-18T18:32:35.478Z,12.00
2019-05-18T18:35:04.674Z,12.67
2019-05-18T18:37:33.519Z,13.30
2019-05-18T18:40:03.111Z,13.17
2019-05-18T18:42:31.963Z,13.03
2019-05-18T18:45:00.979Z,11.73
2019-05-18T18:47:29.977Z,13.27
2019-05-18T18:49:59.091Z,13.50
2019-05-18T18:52:27.956Z,13.57
2019-05-18T18:54:56.832Z,11.80
2019-05-18T18:57:39.921Z,11.53
2019-05-18T18:59:56.738Z,11.57
2019-05-18T19:02:21.624Z,11.98
2019-05-18T19:04:49.116Z,11.37
2019-05-18T19:07:16.725Z,11.10
2019-05-18T19:09:45.037Z,11.93
2019-05-18T19:12:12.574Z,12.80
2019-05-18T19:14:40.923Z,13.57
2019-05-18T19:17:08.580Z,13.75
2019-05-18T19:19:36.079Z,13.17
2019-05-18T19:22:04.626Z,13.40
2019-05-18T19:24:32.223Z,13.47
2019-05-18T19:26:59.999Z,11.17
2019-05-18T19:29:28.874Z,10.73
2019-05-18T19:31:56.460Z,14.53
2019-05-18T19:34:24.023Z,13.93
2019-05-18T19:36:51.654Z,11.63
2019-05-18T19:39:19.249Z,13.43
2019-05-18T19:41:46.923Z,12.47
2019-05-18T19:44:14.482Z,13.43
2019-05-18T19:46:41.961Z,15.77
2019-05-18T19:49:10.220Z,11.98
2019-05-18T19:51:37.721Z,14.50
2019-05-18T19:54:05.470Z,11.87
2019-05-18T19:56:39.091Z,16.47
2019-05-18T19:59:01.593Z,15.73
2019-05-18T20:01:29.085Z,13.30
2019-05-18T20:03:57.551Z,15.43
2019-05-18T20:06:25.329Z,14.77
2019-05-18T20:08:53.191Z,12.87
2019-05-18T20:11:20.780Z,15.57
2019-05-18T20:13:49.110Z,13.90
2019-05-18T20:16:16.711Z,13.50
2019-05-18T20:18:44.203Z,14.47
2019-05-18T20:21:11.724Z,17.47
2019-05-18T20:23:39.257Z,15.30
2019-05-18T20:26:06.757Z,12.37
2019-05-18T20:28:34.244Z,14.97
2019-05-18T20:31:03.470Z,15.03
2019-05-18T20:33:30.985Z,16.57
2019-05-18T20:35:58.555Z,14.80
2019-05-18T20:38:26.298Z,16.30
2019-05-18T20:40:53.988Z,18.03
2019-05-18T20:43:21.747Z,15.37
2019-05-18T20:45:49.420Z,17.77
2019-05-18T20:48:17.198Z,17.73
2019-05-18T20:50:44.701Z,18.13
2019-05-18T20:53:12.238Z,19.20
2019-05-18T20:55:40.501Z,18.63
2019-05-18T20:58:08.906Z,17.27
2019-05-18T21:00:38.632Z,19.20
2019-05-18T21:03:05.244Z,17.83
2019-05-18T21:05:33.649Z,20.03
2019-05-18T21:08:01.977Z,20.13
2019-05-18T21:10:29.560Z,20.40
2019-05-18T21:12:57.435Z,16.90
2019-05-18T21:15:26.439Z,17.13
2019-05-18T21:17:54.040Z,17.03
2019-05-18T21:20:21.583Z,17.70
2019-05-18T21:22:49.946Z,17.23
2019-05-18T21:25:17.621Z,17.65
2019-05-18T21:27:45.487Z,15.03
2019-05-18T21:30:13.063Z,15.07
2019-05-18T21:32:41.322Z,16.27
2019-05-18T21:35:08.907Z,17.77
2019-05-18T21:37:37.768Z,17.53
2019-05-18T21:40:05.310Z,18.47
2019-05-18T21:42:32.977Z,16.53
2019-05-18T21:45:00.680Z,18.57
2019-05-18T21:47:29.034Z,19.93
2019-05-18T21:49:56.726Z,18.97
2019-05-18T21:52:24.303Z,17.73
2019-05-18T21:54:52.567Z,18.60
2019-05-18T21:57:20.078Z,17.90
2019-05-18T21:59:48.335Z,18.27
2019-05-18T22:02:15.884Z,19.53
2019-05-18T22:04:44.143Z,20.40
2019-05-18T22:07:11.788Z,18.50
2019-05-18T22:09:39.280Z,19.90
2019-05-18T22:12:06.794Z,21.23
2019-05-18T22:14:34.303Z,20.53
2019-05-18T22:17:02.708Z,19.70
2019-05-18T22:19:30.223Z,16.03
2019-05-18T22:21:57.967Z,19.57
2019-05-18T22:24:26.255Z,22.33
2019-05-18T22:26:54.538Z,21.70
2019-05-18T22:29:22.042Z,20.70
2019-05-18T22:31:49.528Z,22.10
2019-05-18T22:34:17.056Z,22.13
2019-05-18T22:36:47.649Z,18.63
2019-05-18T22:39:15.144Z,23.07
2019-05-18T22:41:42.640Z,21.67
2019-05-18T22:44:10.308Z,22.73
2019-05-18T22:46:37.873Z,21.70
2019-05-18T22:49:05.384Z,21.27
2019-05-18T22:51:33.016Z,20.63
2019-05-18T22:54:00.510Z,22.20
2019-05-18T22:56:28.037Z,19.37
2019-05-18T22:58:55.520Z,23.23
2019-05-18T23:01:24.005Z,20.20
2019-05-18T23:03:51.886Z,21.80
2019-05-18T23:06:19.837Z,22.80
2019-05-18T23:08:47.617Z,22.80
2019-05-18T23:11:15.982Z,23.80
2019-05-18T23:13:43.539Z,19.60
2019-05-18T23:16:11.066Z,22.40
2019-05-18T23:18:38.628Z,21.20
2019-05-18T23:21:06.275Z,22.97
2019-05-18T23:23:33.907Z,23.30
2019-05-18T23:26:01.591Z,21.87
2019-05-18T23:28:29.840Z,23.63
2019-05-18T23:30:57.423Z,24.03
2019-05-18T23:33:24.958Z,21.17
2019-05-18T23:35:52.455Z,23.70
2019-05-18T23:38:20.008Z,23.27
2019-05-18T23:40:47.504Z,23.97
2019-05-18T23:43:15.000Z,24.40
2019-05-18T23:45:42.600Z,24.67
2019-05-18T23:48:10.119Z,21.33
2019-05-18T23:50:37.737Z,22.37
2019-05-18T23:53:05.231Z,21.77
2019-05-18T23:55:32.867Z,24.37
2019-05-18T23:58:05.000Z,21.93
